AFR2872 TFFR-TFFF
Flight info
| Callsign | AFR2872 |
|---|---|
| Flight time | 0h 28m |
| Altitude | 12000 |
| Route | KATIM2F KATIM DCT KAREX DCT FOF |
| Aircraft | AT45/M-SDFGIRY/S |
Departure
| Time | 2026-05-06 15:35 |
|---|---|
| Airport | Maryse Condé International Airport (TFFR) |
Arrival
| Time | 2026-05-06 16:04 |
|---|---|
| Airport | Martinique Aimé Césaire International Airport (TFFF) |
| Time | Latitude | Longitude | Altitude | Speed | Heading |
|---|---|---|---|---|---|
| 2026-05-06 15:22 | 16.26986 | -61.52998 | 24 ft | 0 kts | 148° |
| 2026-05-06 15:31 | 16.26977 | -61.52998 | 28 ft | 3 kts | 193° |
| 2026-05-06 15:32 | 16.26874 | -61.52983 | 26 ft | 9 kts | 113° |
| 2026-05-06 15:32 | 16.26846 | -61.52931 | 26 ft | 3 kts | 168° |
| 2026-05-06 15:32 | 16.26747 | -61.52946 | 25 ft | 18 kts | 190° |
| 2026-05-06 15:32 | 16.26622 | -61.52972 | 25 ft | 23 kts | 190° |
| 2026-05-06 15:33 | 16.26510 | -61.53022 | 23 ft | 19 kts | 248° |
| 2026-05-06 15:33 | 16.26537 | -61.53220 | 25 ft | 31 kts | 281° |
| 2026-05-06 15:33 | 16.26583 | -61.53469 | 22 ft | 35 kts | 280° |
| 2026-05-06 15:33 | 16.26626 | -61.53698 | 20 ft | 34 kts | 280° |
| 2026-05-06 15:34 | 16.26674 | -61.53960 | 17 ft | 34 kts | 281° |
| 2026-05-06 15:34 | 16.26727 | -61.54242 | 13 ft | 33 kts | 281° |
| 2026-05-06 15:34 | 16.26730 | -61.54373 | 11 ft | 11 kts | 235° |
| 2026-05-06 15:34 | 16.26749 | -61.54398 | 11 ft | 6 kts | 62° |
| 2026-05-06 15:35 | 16.26711 | -61.54161 | 14 ft | 62 kts | 101° |
| 2026-05-06 15:35 | 16.26592 | -61.53508 | 30 ft | 121 kts | 97° |
| 2026-05-06 15:35 | 16.26442 | -61.52560 | 435 ft | 140 kts | 105° |
| 2026-05-06 15:35 | 16.26266 | -61.51522 | 1076 ft | 150 kts | 102° |
| 2026-05-06 15:36 | 16.26070 | -61.50451 | 1888 ft | 149 kts | 100° |
| 2026-05-06 15:36 | 16.25910 | -61.49390 | 2689 ft | 148 kts | 98° |
| 2026-05-06 15:36 | 16.25787 | -61.48306 | 3282 ft | 161 kts | 97° |
| 2026-05-06 15:36 | 16.25666 | -61.47137 | 4043 ft | 162 kts | 97° |
| 2026-05-06 15:37 | 16.25507 | -61.45962 | 4890 ft | 162 kts | 102° |
| 2026-05-06 15:37 | 16.25284 | -61.44802 | 5591 ft | 170 kts | 103° |
| 2026-05-06 15:37 | 16.25021 | -61.43551 | 6205 ft | 184 kts | 104° |
| 2026-05-06 15:37 | 16.24705 | -61.42212 | 6705 ft | 200 kts | 113° |
| 2026-05-06 15:38 | 16.23709 | -61.41134 | 6991 ft | 222 kts | 153° |
| 2026-05-06 15:38 | 16.22138 | -61.40959 | 7388 ft | 240 kts | 190° |
| 2026-05-06 15:38 | 16.20546 | -61.41597 | 7880 ft | 249 kts | 199° |
| 2026-05-06 15:38 | 16.18892 | -61.42163 | 8364 ft | 252 kts | 191° |
| 2026-05-06 15:39 | 16.17158 | -61.42460 | 8863 ft | 254 kts | 183° |
| 2026-05-06 15:39 | 16.15390 | -61.42534 | 9381 ft | 255 kts | 178° |
| 2026-05-06 15:39 | 16.13611 | -61.42471 | 9906 ft | 257 kts | 175° |
| 2026-05-06 15:39 | 16.11827 | -61.42341 | 10414 ft | 258 kts | 174° |
| 2026-05-06 15:40 | 16.10056 | -61.42189 | 10903 ft | 259 kts | 174° |
| 2026-05-06 15:40 | 16.08256 | -61.42027 | 11505 ft | 256 kts | 174° |
| 2026-05-06 15:40 | 16.06500 | -61.41861 | 12218 ft | 253 kts | 173° |
| 2026-05-06 15:40 | 16.04738 | -61.41690 | 12765 ft | 256 kts | 174° |
| 2026-05-06 15:41 | 16.02940 | -61.41531 | 13284 ft | 262 kts | 175° |
| 2026-05-06 15:41 | 16.01108 | -61.41380 | 13791 ft | 267 kts | 175° |
| 2026-05-06 15:41 | 15.99222 | -61.41272 | 14024 ft | 276 kts | 177° |
| 2026-05-06 15:41 | 15.97265 | -61.41217 | 14070 ft | 286 kts | 179° |
| 2026-05-06 15:42 | 15.95244 | -61.41201 | 14094 ft | 295 kts | 179° |
| 2026-05-06 15:42 | 15.93167 | -61.41180 | 14104 ft | 301 kts | 179° |
| 2026-05-06 15:42 | 15.91051 | -61.41154 | 14109 ft | 307 kts | 179° |
| 2026-05-06 15:42 | 15.88902 | -61.41124 | 14113 ft | 311 kts | 179° |
| 2026-05-06 15:43 | 15.86725 | -61.41098 | 14116 ft | 314 kts | 179° |
| 2026-05-06 15:43 | 15.84529 | -61.41071 | 14121 ft | 317 kts | 179° |
| 2026-05-06 15:43 | 15.82318 | -61.41044 | 14121 ft | 318 kts | 179° |
| 2026-05-06 15:43 | 15.80101 | -61.41017 | 14126 ft | 320 kts | 179° |
| 2026-05-06 15:44 | 15.77870 | -61.40988 | 14129 ft | 321 kts | 179° |
| 2026-05-06 15:44 | 15.75635 | -61.40962 | 14131 ft | 321 kts | 179° |
| 2026-05-06 15:44 | 15.73396 | -61.40935 | 14134 ft | 322 kts | 179° |
| 2026-05-06 15:44 | 15.71158 | -61.40906 | 14137 ft | 322 kts | 179° |
| 2026-05-06 15:45 | 15.68914 | -61.40880 | 14143 ft | 322 kts | 179° |
| 2026-05-06 15:45 | 15.66672 | -61.40854 | 14145 ft | 323 kts | 179° |
| 2026-05-06 15:45 | 15.64426 | -61.40826 | 14148 ft | 322 kts | 179° |
| 2026-05-06 15:45 | 15.62183 | -61.40797 | 14153 ft | 322 kts | 179° |
| 2026-05-06 15:46 | 15.59937 | -61.40770 | 14158 ft | 323 kts | 179° |
| 2026-05-06 15:46 | 15.57687 | -61.40742 | 14160 ft | 324 kts | 179° |
| 2026-05-06 15:46 | 15.55440 | -61.40718 | 14151 ft | 322 kts | 179° |
| 2026-05-06 15:46 | 15.53200 | -61.40693 | 14146 ft | 321 kts | 179° |
| 2026-05-06 15:47 | 15.51000 | -61.40663 | 14153 ft | 320 kts | 179° |
| 2026-05-06 15:47 | 15.48776 | -61.40633 | 14132 ft | 319 kts | 179° |
| 2026-05-06 15:47 | 15.46566 | -61.40611 | 14143 ft | 317 kts | 179° |
| 2026-05-06 15:47 | 15.44355 | -61.40584 | 14069 ft | 316 kts | 178° |
| 2026-05-06 15:48 | 15.42155 | -61.40555 | 14075 ft | 316 kts | 178° |
| 2026-05-06 15:48 | 15.39958 | -61.40524 | 14076 ft | 315 kts | 178° |
| 2026-05-06 15:48 | 15.37790 | -61.40318 | 14071 ft | 310 kts | 168° |
| 2026-05-06 15:48 | 15.35644 | -61.40050 | 14080 ft | 312 kts | 175° |
| 2026-05-06 15:49 | 15.33473 | -61.39916 | 14079 ft | 313 kts | 176° |
| 2026-05-06 15:49 | 15.31305 | -61.39713 | 14070 ft | 312 kts | 165° |
| 2026-05-06 15:49 | 15.29363 | -61.38768 | 14076 ft | 307 kts | 147° |
| 2026-05-06 15:49 | 15.27538 | -61.37619 | 14077 ft | 307 kts | 146° |
| 2026-05-06 15:50 | 15.25670 | -61.36539 | 14092 ft | 309 kts | 152° |
| 2026-05-06 15:50 | 15.24363 | -61.35953 | 14084 ft | 310 kts | 157° |
| 2026-05-06 15:50 | 15.21607 | -61.35086 | 14094 ft | 313 kts | 163° |
| 2026-05-06 15:50 | 15.19494 | -61.34523 | 14084 ft | 314 kts | 164° |
| 2026-05-06 15:51 | 15.17381 | -61.33952 | 14085 ft | 314 kts | 163° |
| 2026-05-06 15:51 | 15.15283 | -61.33341 | 14086 ft | 313 kts | 162° |
| 2026-05-06 15:51 | 15.13867 | -61.32914 | 14089 ft | 313 kts | 162° |
| 2026-05-06 15:51 | 15.11805 | -61.32294 | 14092 ft | 313 kts | 162° |
| 2026-05-06 15:52 | 15.09676 | -61.31657 | 13715 ft | 325 kts | 162° |
| 2026-05-06 15:52 | 15.07523 | -61.31023 | 13284 ft | 311 kts | 162° |
| 2026-05-06 15:52 | 15.05454 | -61.30400 | 12850 ft | 305 kts | 162° |
| 2026-05-06 15:52 | 15.03469 | -61.29804 | 12413 ft | 289 kts | 162° |
| 2026-05-06 15:53 | 15.01601 | -61.29243 | 11964 ft | 277 kts | 161° |
| 2026-05-06 15:53 | 14.99787 | -61.28692 | 11519 ft | 267 kts | 161° |
| 2026-05-06 15:53 | 14.98028 | -61.28157 | 11068 ft | 259 kts | 161° |
| 2026-05-06 15:53 | 14.96320 | -61.27640 | 10624 ft | 252 kts | 161° |
| 2026-05-06 15:54 | 14.94654 | -61.27137 | 10180 ft | 247 kts | 161° |
| 2026-05-06 15:54 | 14.93021 | -61.26645 | 9710 ft | 245 kts | 161° |
| 2026-05-06 15:54 | 14.91287 | -61.26099 | 9252 ft | 273 kts | 161° |
| 2026-05-06 15:54 | 14.89439 | -61.25550 | 8850 ft | 278 kts | 162° |
| 2026-05-06 15:55 | 14.87567 | -61.25022 | 8463 ft | 279 kts | 163° |
| 2026-05-06 15:55 | 14.85713 | -61.24495 | 8077 ft | 273 kts | 162° |
| 2026-05-06 15:55 | 14.83879 | -61.23947 | 7698 ft | 271 kts | 162° |
| 2026-05-06 15:55 | 14.82119 | -61.23425 | 7311 ft | 255 kts | 162° |
| 2026-05-06 15:56 | 14.80456 | -61.22933 | 6921 ft | 242 kts | 161° |
| 2026-05-06 15:56 | 14.78870 | -61.22457 | 6521 ft | 233 kts | 162° |
| 2026-05-06 15:56 | 14.77327 | -61.21992 | 6087 ft | 236 kts | 161° |
| 2026-05-06 15:56 | 14.75683 | -61.21457 | 5681 ft | 257 kts | 160° |
| 2026-05-06 15:57 | 14.73927 | -61.20898 | 5305 ft | 270 kts | 161° |
| 2026-05-06 15:57 | 14.72163 | -61.20403 | 4951 ft | 253 kts | 163° |
| 2026-05-06 15:57 | 14.70528 | -61.19965 | 4592 ft | 239 kts | 162° |
| 2026-05-06 15:57 | 14.68962 | -61.19509 | 4192 ft | 228 kts | 161° |
| 2026-05-06 15:58 | 14.67466 | -61.19061 | 3883 ft | 217 kts | 160° |
| 2026-05-06 15:58 | 14.66026 | -61.18622 | 3697 ft | 225 kts | 159° |
| 2026-05-06 15:58 | 14.64462 | -61.18112 | 3496 ft | 245 kts | 159° |
| 2026-05-06 15:58 | 14.62769 | -61.17587 | 3284 ft | 261 kts | 161° |
| 2026-05-06 15:59 | 14.61055 | -61.17095 | 3099 ft | 244 kts | 162° |
| 2026-05-06 15:59 | 14.59477 | -61.16667 | 2824 ft | 226 kts | 161° |
| 2026-05-06 15:59 | 14.58043 | -61.16153 | 2549 ft | 212 kts | 153° |
| 2026-05-06 15:59 | 14.56853 | -61.15382 | 2258 ft | 197 kts | 127° |
| 2026-05-06 16:00 | 14.56482 | -61.14116 | 2110 ft | 180 kts | 84° |
| 2026-05-06 16:00 | 14.56717 | -61.12912 | 2016 ft | 161 kts | 78° |
| 2026-05-06 16:00 | 14.56956 | -61.11856 | 1880 ft | 145 kts | 78° |
| 2026-05-06 16:00 | 14.57182 | -61.10884 | 1709 ft | 132 kts | 78° |
| 2026-05-06 16:01 | 14.57392 | -61.10023 | 1548 ft | 118 kts | 78° |
| 2026-05-06 16:01 | 14.57541 | -61.09271 | 1424 ft | 99 kts | 80° |
| 2026-05-06 16:01 | 14.57686 | -61.08500 | 1332 ft | 108 kts | 80° |
| 2026-05-06 16:01 | 14.57825 | -61.07762 | 1129 ft | 112 kts | 82° |
| 2026-05-06 16:02 | 14.57979 | -61.06919 | 1038 ft | 118 kts | 82° |
| 2026-05-06 16:02 | 14.58104 | -61.06148 | 877 ft | 102 kts | 82° |
| 2026-05-06 16:02 | 14.58214 | -61.05388 | 751 ft | 116 kts | 80° |
| 2026-05-06 16:02 | 14.58344 | -61.04608 | 590 ft | 103 kts | 76° |
| 2026-05-06 16:03 | 14.58487 | -61.03830 | 471 ft | 115 kts | 78° |
| 2026-05-06 16:03 | 14.58630 | -61.03067 | 310 ft | 107 kts | 78° |
| 2026-05-06 16:03 | 14.58758 | -61.02343 | 172 ft | 104 kts | 78° |
| 2026-05-06 16:03 | 14.58876 | -61.01660 | 28 ft | 92 kts | 78° |
| 2026-05-06 16:04 | 14.58958 | -61.01186 | 19 ft | 25 kts | 80° |
| 2026-05-06 16:04 | 14.59006 | -61.00898 | 19 ft | 39 kts | 80° |
| 2026-05-06 16:04 | 14.59058 | -61.00600 | 15 ft | 43 kts | 79° |
| 2026-05-06 16:04 | 14.59104 | -61.00331 | 15 ft | 34 kts | 80° |
| 2026-05-06 16:05 | 14.59144 | -61.00101 | 15 ft | 32 kts | 79° |
| 2026-05-06 16:05 | 14.59224 | -61.00021 | 17 ft | 21 kts | 350° |
| 2026-05-06 16:05 | 14.59338 | -61.00039 | 17 ft | 12 kts | 4° |
| 2026-05-06 16:05 | 14.59357 | -61.00002 | 17 ft | 15 kts | 81° |
| 2026-05-06 16:06 | 14.59372 | -60.99905 | 17 ft | 8 kts | 81° |
| 2026-05-06 16:06 | 14.59381 | -60.99844 | 19 ft | 4 kts | 82° |
| 2026-05-06 16:06 | 14.59405 | -60.99834 | 17 ft | 7 kts | 326° |
| 2026-05-06 16:06 | 14.59414 | -60.99831 | 17 ft | 4 kts | 48° |
| 2026-05-06 16:07 | 14.59414 | -60.99821 | 17 ft | 0 kts | 141° |